Time,TemperatureF,DewpointF,PressureIn,WindDirection,WindDirectionDegrees,WindSpeedMPH,WindSpeedGustMPH,Humidity,HourlyPrecipIn,Conditions,Clouds,dailyrainin,SoftwareType,DateUTC
2013-04-03 00:01:00,38.0,14.0,-100.00,West,271,9.0,13.0,38,0.00,,,-99.99,,2013-04-03 06:01:00,
2013-04-03 00:21:00,36.0,14.0,-100.00,West,267,11.0,14.0,40,0.00,,,-99.99,,2013-04-03 06:21:00,
2013-04-03 00:31:00,36.0,14.0,-100.00,West,265,12.0,17.0,41,0.00,,,-99.99,,2013-04-03 06:31:00,
2013-04-03 00:41:00,36.0,15.0,-100.00,West,265,14.0,26.0,42,0.00,,,-99.99,,2013-04-03 06:41:00,
2013-04-03 00:52:00,38.0,17.0,-100.00,West,263,17.0,26.0,42,0.00,,,-99.99,,2013-04-03 06:52:00,
2013-04-03 01:01:00,39.0,18.0,-100.00,West,260,21.0,32.0,41,0.00,,,-99.99,,2013-04-03 07:01:00,
2013-04-03 01:11:00,40.0,18.0,-100.00,WSW,253,24.0,34.0,41,0.00,,,-99.99,,2013-04-03 07:11:00,
2013-04-03 01:22:00,40.0,19.0,-100.00,WSW,250,27.0,37.0,41,0.00,,,-99.99,,2013-04-03 07:22:00,
2013-04-03 01:31:00,40.0,19.0,-100.00,WSW,248,27.0,37.0,41,0.00,,,-99.99,,2013-04-03 07:31:00,
2013-04-03 01:41:00,40.0,19.0,-100.00,WSW,257,26.0,39.0,43,0.00,,,-99.99,,2013-04-03 07:41:00,
2013-04-03 01:52:00,40.0,19.0,-100.00,WSW,254,26.0,37.0,43,0.00,,,-99.99,,2013-04-03 07:52:00,
2013-04-03 02:01:00,40.0,20.0,-100.00,WSW,254,26.0,33.0,43,0.00,,,-99.99,,2013-04-03 08:01:00,
2013-04-03 02:11:00,40.0,20.0,-100.00,WSW,256,26.0,32.0,44,0.00,,,-99.99,,2013-04-03 08:11:00,
2013-04-03 02:21:00,40.0,21.0,-100.00,WSW,253,24.0,32.0,46,0.00,,,-99.99,,2013-04-03 08:21:00,
2013-04-03 02:31:00,40.0,21.0,-100.00,WSW,253,24.0,34.0,47,0.00,,,-99.99,,2013-04-03 08:31:00,
2013-04-03 02:41:00,39.0,21.0,-100.00,WSW,256,21.0,29.0,49,0.00,,,-99.99,,2013-04-03 08:41:00,
2013-04-03 02:51:00,39.0,22.0,-100.00,WSW,256,22.0,34.0,50,0.00,,,-99.99,,2013-04-03 08:51:00,
2013-04-03 03:01:00,39.0,23.0,-100.00,WSW,256,26.0,41.0,52,0.00,,,-99.99,,2013-04-03 09:01:00,
2013-04-03 03:11:00,39.0,24.0,-100.00,WSW,257,28.0,41.0,53,0.00,,,-99.99,,2013-04-03 09:11:00,
2013-04-03 03:21:00,39.0,24.0,-100.00,West,261,27.0,37.0,55,0.00,,,-99.99,,2013-04-03 09:21:00,
2013-04-03 03:32:00,39.0,25.0,-100.00,West,261,25.0,36.0,56,0.00,,,-99.99,,2013-04-03 09:32:00,
2013-04-03 03:42:00,39.0,25.0,-100.00,West,260,23.0,35.0,56,0.00,,,-99.99,,2013-04-03 09:42:00,
2013-04-03 03:52:00,39.0,25.0,-100.00,WSW,256,25.0,36.0,57,0.00,,,-99.99,,2013-04-03 09:52:00,
2013-04-03 04:02:00,39.0,25.0,-100.00,WSW,257,26.0,32.0,57,0.00,,,-99.99,,2013-04-03 10:02:00,
2013-04-03 04:12:00,39.0,25.0,-100.00,WSW,257,26.0,37.0,58,0.00,,,-99.99,,2013-04-03 10:12:00,
2013-04-03 04:22:00,38.0,26.0,-100.00,WSW,257,24.0,32.0,59,-99.99,,,-99.99,,2013-04-03 10:22:00,
2013-04-03 04:32:00,39.0,26.0,-100.00,WSW,256,24.0,35.0,59,0.00,,,-99.99,,2013-04-03 10:32:00,
2013-04-03 04:42:00,39.0,26.0,-100.00,WSW,254,24.0,32.0,59,0.00,,,-99.99,,2013-04-03 10:42:00,
2013-04-03 04:52:00,39.0,26.0,-100.00,WSW,256,24.0,32.0,59,0.00,,,-99.99,,2013-04-03 10:52:00,
2013-04-03 05:02:00,38.0,26.0,-100.00,WSW,256,22.0,32.0,59,0.00,,,-99.99,,2013-04-03 11:02:00,
2013-04-03 05:12:00,39.0,26.0,-100.00,WSW,256,24.0,31.0,60,0.00,,,-99.99,,2013-04-03 11:12:00,
2013-04-03 05:22:00,38.0,26.0,-100.00,WSW,256,22.0,30.0,61,0.00,,,-99.99,,2013-04-03 11:22:00,
2013-04-03 05:32:00,38.0,26.0,-100.00,WSW,257,20.0,27.0,62,0.00,,,-99.99,,2013-04-03 11:32:00,
2013-04-03 05:41:00,38.0,27.0,-100.00,WSW,254,21.0,28.0,62,0.00,,,-99.99,,2013-04-03 11:41:00,
2013-04-03 05:52:00,38.0,27.0,-100.00,WSW,257,17.0,27.0,64,0.00,,,-99.99,,2013-04-03 11:52:00,
2013-04-03 06:01:00,37.0,26.0,-100.00,West,263,14.0,20.0,65,0.00,,,-99.99,,2013-04-03 12:01:00,
2013-04-03 06:11:00,37.0,26.0,-100.00,West,263,13.0,20.0,65,0.00,,,-99.99,,2013-04-03 12:11:00,
2013-04-03 06:21:00,36.0,26.0,-100.00,West,267,9.0,14.0,68,0.00,,,-99.99,,2013-04-03 12:21:00,
2013-04-03 06:31:00,36.0,26.0,-100.00,West,270,8.0,16.0,69,0.00,,,-99.99,,2013-04-03 12:31:00,
2013-04-03 06:41:00,36.0,27.0,-100.00,West,267,10.0,16.0,70,0.00,,,-99.99,,2013-04-03 12:41:00,
2013-04-03 06:52:00,36.0,27.0,-100.00,West,264,13.0,24.0,69,0.00,,,-99.99,,2013-04-03 12:52:00,
2013-04-03 07:01:00,36.0,27.0,-100.00,West,267,13.0,21.0,69,0.00,,,-99.99,,2013-04-03 13:01:00,
2013-04-03 07:12:00,36.0,27.0,-100.00,West,261,17.0,26.0,68,0.00,,,-99.99,,2013-04-03 13:12:00,
2013-04-03 07:21:00,37.0,27.0,-100.00,WSW,258,21.0,33.0,66,0.00,,,-99.99,,2013-04-03 13:21:00,
2013-04-03 07:31:00,37.0,27.0,-100.00,WSW,258,20.0,32.0,66,0.00,,,-99.99,,2013-04-03 13:31:00,
2013-04-03 07:52:00,37.0,26.0,-100.00,West,264,21.0,34.0,65,0.00,,,-99.99,,2013-04-03 13:52:00,
2013-04-03 08:01:00,37.0,26.0,-100.00,West,264,19.0,29.0,65,0.00,,,-99.99,,2013-04-03 14:01:00,
2013-04-03 08:11:00,37.0,26.0,-100.00,West,264,19.0,27.0,65,0.00,,,-99.99,,2013-04-03 14:11:00,
2013-04-03 08:21:00,37.0,26.0,-100.00,West,271,13.0,23.0,64,0.00,,,-99.99,,2013-04-03 14:21:00,
2013-04-03 08:31:00,37.0,26.0,-100.00,West,271,12.0,21.0,64,0.00,,,-99.99,,2013-04-03 14:31:00,
2013-04-03 08:42:00,37.0,26.0,-100.00,West,267,14.0,23.0,63,0.00,,,-99.99,,2013-04-03 14:42:00,
2013-04-03 08:51:00,38.0,26.0,-100.00,WSW,254,17.0,25.0,62,0.00,,,-99.99,,2013-04-03 14:51:00,
2013-04-03 09:02:00,38.0,26.0,-100.00,West,261,13.0,20.0,60,0.00,,,-99.99,,2013-04-03 15:02:00,
2013-04-03 09:11:00,38.0,26.0,-100.00,West,261,13.0,18.0,61,0.00,,,-99.99,,2013-04-03 15:11:00,
2013-04-03 09:22:00,38.0,26.0,-100.00,West,263,12.0,19.0,60,0.00,,,-99.99,,2013-04-03 15:22:00,
2013-04-03 09:32:00,38.0,26.0,-100.00,West,261,14.0,20.0,61,0.00,,,-99.99,,2013-04-03 15:32:00,
2013-04-03 09:42:00,38.0,26.0,-100.00,West,265,12.0,19.0,62,0.00,,,-99.99,,2013-04-03 15:42:00,
2013-04-03 09:53:00,38.0,26.0,-100.00,West,264,12.0,19.0,61,0.00,,,-99.99,,2013-04-03 15:53:00,
2013-04-03 10:02:00,38.0,26.0,-100.00,West,268,9.0,19.0,61,0.00,,,-99.99,,2013-04-03 16:02:00,
2013-04-03 10:12:00,38.0,26.0,-100.00,West,265,11.0,20.0,60,0.00,,,-99.99,,2013-04-03 16:12:00,
2013-04-03 10:22:00,39.0,26.0,-100.00,West,270,9.0,22.0,59,0.00,,,-99.99,,2013-04-03 16:22:00,
2013-04-03 10:32:00,39.0,25.0,-100.00,West,272,14.0,22.0,57,-99.99,,,-99.99,,2013-04-03 16:32:00,
2013-04-03 10:42:00,39.0,25.0,-100.00,West,272,14.0,22.0,57,0.00,,,-99.99,,2013-04-03 16:42:00,
2013-04-03 10:52:00,39.0,24.0,-100.00,West,263,15.0,24.0,55,0.00,,,-99.99,,2013-04-03 16:52:00,
2013-04-03 11:02:00,39.0,24.0,-100.00,WSW,258,16.0,24.0,55,0.00,,,-99.99,,2013-04-03 17:02:00,
2013-04-03 11:22:00,40.0,24.0,-100.00,West,260,13.0,19.0,52,0.00,,,-99.99,,2013-04-03 17:22:00,
2013-04-03 11:32:00,41.0,23.0,-100.00,West,265,10.0,17.0,48,0.00,,,-99.99,,2013-04-03 17:32:00,
2013-04-03 11:44:00,41.0,22.0,-100.00,West,268,11.0,19.0,47,0.00,,,-99.99,,2013-04-03 17:44:00,
2013-04-03 11:52:00,42.0,22.0,-100.00,West,267,12.0,22.0,46,0.00,,,-99.99,,2013-04-03 17:52:00,
2013-04-03 12:02:00,41.0,22.0,-100.00,West,261,16.0,27.0,45,0.00,,,-99.99,,2013-04-03 18:02:00,
2013-04-03 12:12:00,42.0,22.0,-100.00,WSW,258,15.0,22.0,44,0.00,,,-99.99,,2013-04-03 18:12:00,
2013-04-03 12:21:00,42.0,21.0,-100.00,WSW,246,14.0,21.0,43,-99.99,,,-99.99,,2013-04-03 18:21:00,
2013-04-03 12:32:00,43.0,21.0,-100.00,WSW,253,11.0,21.0,41,0.00,,,-99.99,,2013-04-03 18:32:00,
2013-04-03 12:42:00,44.0,19.0,-100.00,West,265,11.0,17.0,37,0.00,,,-99.99,,2013-04-03 18:42:00,
2013-04-03 12:52:00,44.0,19.0,-100.00,West,267,12.0,18.0,36,0.00,,,-99.99,,2013-04-03 18:52:00,
2013-04-03 13:01:00,46.0,18.0,-100.00,West,278,11.0,22.0,32,0.00,,,-99.99,,2013-04-03 19:01:00,
2013-04-03 13:11:00,45.0,17.0,-100.00,West,275,11.0,20.0,32,0.00,,,-99.99,,2013-04-03 19:11:00,
2013-04-03 13:21:00,45.0,18.0,-100.00,West,268,11.0,17.0,34,0.00,,,-99.99,,2013-04-03 19:21:00,
2013-04-03 13:31:00,44.0,18.0,-100.00,West,265,11.0,19.0,35,0.00,,,-99.99,,2013-04-03 19:31:00,
2013-04-03 13:41:00,45.0,17.0,-100.00,West,280,9.0,19.0,32,0.00,,,-99.99,,2013-04-03 19:41:00,
2013-04-03 13:52:00,45.0,18.0,-100.00,West,277,6.0,12.0,33,0.00,,,-99.99,,2013-04-03 19:52:00,
2013-04-03 14:01:00,45.0,18.0,-100.00,WSW,247,4.0,10.0,33,0.00,,,-99.99,,2013-04-03 20:01:00,
2013-04-03 14:11:00,46.0,18.0,-100.00,WSW,239,3.0,9.0,33,0.00,,,-99.99,,2013-04-03 20:11:00,
2013-04-03 14:21:00,45.0,18.0,-100.00,WNW,296,3.0,7.0,34,0.00,,,-99.99,,2013-04-03 20:21:00,
2013-04-03 14:31:00,45.0,17.0,-100.00,SW,216,4.0,9.0,32,0.00,,,-99.99,,2013-04-03 20:31:00,
2013-04-03 14:42:00,44.0,20.0,-100.00,SSE,162,4.0,9.0,37,0.00,,,-99.99,,2013-04-03 20:42:00,
2013-04-03 14:52:00,41.0,20.0,-100.00,NNE,31,6.0,11.0,42,0.00,,,-99.99,,2013-04-03 20:52:00,
2013-04-03 15:03:00,-999.0,-99.9,-100.00,NE,51,9.0,12.0,-999,-99.99,,,-99.99,,2013-04-03 21:03:00,
2013-04-03 15:12:00,41.0,20.0,-100.00,NE,51,9.0,12.0,41,0.00,,,-99.99,,2013-04-03 21:12:00,
2013-04-03 15:22:00,42.0,20.0,-100.00,ENE,64,8.0,12.0,42,0.00,,,-99.99,,2013-04-03 21:22:00,
2013-04-03 15:32:00,42.0,20.0,-100.00,ENE,59,9.0,14.0,42,0.00,,,-99.99,,2013-04-03 21:32:00,
2013-04-03 15:42:00,42.0,21.0,-100.00,ENE,65,8.0,12.0,43,0.00,,,-99.99,,2013-04-03 21:42:00,
2013-04-03 15:52:00,41.0,19.0,-100.00,NE,56,7.0,12.0,41,0.00,,,-99.99,,2013-04-03 21:52:00,
2013-04-03 16:02:00,41.0,20.0,-100.00,ENE,65,7.0,12.0,42,0.00,,,-99.99,,2013-04-03 22:02:00,
2013-04-03 16:12:00,42.0,20.0,-100.00,ENE,64,9.0,13.0,41,0.00,,,-99.99,,2013-04-03 22:12:00,
2013-04-03 16:22:00,41.0,19.0,-100.00,East,85,11.0,14.0,40,0.00,,,-99.99,,2013-04-03 22:22:00,
2013-04-03 16:32:00,43.0,20.0,-100.00,East,80,9.0,16.0,41,0.00,,,-99.99,,2013-04-03 22:32:00,
2013-04-03 16:42:00,42.0,20.0,-100.00,ENE,62,7.0,15.0,41,0.00,,,-99.99,,2013-04-03 22:42:00,
2013-04-03 16:52:00,43.0,20.0,-100.00,NE,54,6.0,11.0,39,0.00,,,-99.99,,2013-04-03 22:52:00,
2013-04-03 17:02:00,43.0,21.0,-100.00,ENE,68,6.0,12.0,41,0.00,,,-99.99,,2013-04-03 23:02:00,
2013-04-03 17:11:00,42.0,20.0,-100.00,ENE,73,7.0,12.0,41,0.00,,,-99.99,,2013-04-03 23:11:00,
2013-04-03 17:21:00,41.0,21.0,-100.00,NE,56,7.0,11.0,44,0.00,,,-99.99,,2013-04-03 23:21:00,
2013-04-03 17:32:00,41.0,21.0,-100.00,NE,40,7.0,11.0,44,0.00,,,-99.99,,2013-04-03 23:32:00,
2013-04-03 17:42:00,41.0,22.0,-100.00,NE,38,5.0,9.0,47,0.00,,,-99.99,,2013-04-03 23:42:00,
2013-04-03 17:52:00,41.0,24.0,-100.00,WNW,302,4.0,14.0,51,0.00,,,-99.99,,2013-04-03 23:52:00,
2013-04-03 18:01:00,40.0,24.0,-100.00,WNW,288,8.0,16.0,52,0.00,,,-99.99,,2013-04-04 00:01:00,
2013-04-03 18:21:00,39.0,25.0,-100.00,WSW,258,13.0,24.0,58,0.00,,,-99.99,,2013-04-04 00:21:00,
2013-04-03 18:32:00,39.0,27.0,-100.00,WSW,257,12.0,21.0,61,0.00,,,-99.99,,2013-04-04 00:32:00,
2013-04-03 18:42:00,39.0,26.0,-100.00,WSW,254,13.0,21.0,60,-99.99,,,-99.99,,2013-04-04 00:42:00,
2013-04-03 18:52:00,39.0,26.0,-100.00,WSW,248,16.0,24.0,60,0.00,,,-99.99,,2013-04-04 00:52:00,
2013-04-03 19:02:00,40.0,26.0,-100.00,WSW,251,16.0,26.0,56,0.00,,,-99.99,,2013-04-04 01:02:00,
2013-04-03 19:11:00,40.0,26.0,-100.00,WSW,251,15.0,21.0,56,0.00,,,-99.99,,2013-04-04 01:11:00,
2013-04-03 19:21:00,40.0,26.0,-100.00,WSW,253,14.0,20.0,58,0.00,,,-99.99,,2013-04-04 01:21:00,
2013-04-03 19:31:00,38.0,26.0,-100.00,WSW,251,16.0,21.0,61,0.00,,,-99.99,,2013-04-04 01:31:00,
2013-04-03 19:43:00,-999.0,-99.9,-100.00,WSW,256,12.0,18.0,-999,-99.99,,,-99.99,,2013-04-04 01:43:00,
2013-04-03 19:52:00,37.0,26.0,-100.00,WSW,253,12.0,16.0,64,0.00,,,-99.99,,2013-04-04 01:52:00,
2013-04-03 20:01:00,37.0,26.0,-100.00,WSW,251,13.0,17.0,65,0.00,,,-99.99,,2013-04-04 02:01:00,
2013-04-03 20:11:00,36.0,26.0,-100.00,WSW,248,13.0,17.0,65,0.00,,,-99.99,,2013-04-04 02:11:00,
2013-04-03 20:22:00,36.0,26.0,-100.00,West,260,14.0,22.0,67,0.00,,,-99.99,,2013-04-04 02:22:00,
2013-04-03 20:31:00,36.0,26.0,-100.00,West,261,12.0,17.0,67,0.00,,,-99.99,,2013-04-04 02:31:00,
2013-04-03 20:42:00,36.0,26.0,-100.00,West,261,12.0,17.0,67,0.00,,,-99.99,,2013-04-04 02:42:00,
2013-04-03 20:52:00,36.0,26.0,-100.00,West,261,12.0,17.0,67,0.00,,,-99.99,,2013-04-04 02:52:00,
2013-04-03 21:02:00,36.0,26.0,-100.00,WSW,254,17.0,25.0,65,0.00,,,-99.99,,2013-04-04 03:02:00,
2013-04-03 21:11:00,36.0,26.0,-100.00,WSW,254,14.0,25.0,66,0.00,,,-99.99,,2013-04-04 03:11:00,
2013-04-03 21:21:00,35.0,26.0,-100.00,West,264,8.0,13.0,69,0.00,,,-99.99,,2013-04-04 03:21:00,
2013-04-03 21:32:00,35.0,26.0,-100.00,WSW,253,10.0,14.0,67,0.00,,,-99.99,,2013-04-04 03:32:00,
2013-04-03 21:43:00,36.0,26.0,-100.00,WSW,251,11.0,16.0,67,0.00,,,-99.99,,2013-04-04 03:43:00,
2013-04-03 21:53:00,36.0,26.0,-100.00,WSW,251,11.0,15.0,67,0.00,,,-99.99,,2013-04-04 03:53:00,
2013-04-03 22:02:00,36.0,26.0,-100.00,WSW,253,9.0,13.0,66,0.00,,,-99.99,,2013-04-04 04:02:00,
2013-04-03 22:12:00,36.0,26.0,-100.00,WSW,251,9.0,13.0,66,0.00,,,-99.99,,2013-04-04 04:12:00,
2013-04-03 22:22:00,36.0,25.0,-100.00,West,260,7.0,12.0,64,0.00,,,-99.99,,2013-04-04 04:22:00,
2013-04-03 22:32:00,37.0,25.0,-100.00,WSW,254,7.0,11.0,63,0.00,,,-99.99,,2013-04-04 04:32:00,
2013-04-03 22:42:00,36.0,25.0,-100.00,WSW,258,6.0,9.0,64,0.00,,,-99.99,,2013-04-04 04:42:00,
2013-04-03 22:52:00,36.0,25.0,-100.00,West,264,4.0,8.0,64,0.00,,,-99.99,,2013-04-04 04:52:00,
2013-04-03 23:01:00,36.0,25.0,-100.00,WSW,251,6.0,9.0,62,0.00,,,-99.99,,2013-04-04 05:01:00,
2013-04-03 23:12:00,36.0,25.0,-100.00,WSW,256,6.0,10.0,62,0.00,,,-99.99,,2013-04-04 05:12:00,
2013-04-03 23:22:00,36.0,25.0,-100.00,West,264,3.0,6.0,64,0.00,,,-99.99,,2013-04-04 05:22:00,
2013-04-03 23:32:00,37.0,24.0,-100.00,SW,224,6.0,9.0,60,0.00,,,-99.99,,2013-04-04 05:32:00,
2013-04-03 23:41:00,37.0,24.0,-100.00,WSW,241,5.0,8.0,60,0.00,,,-99.99,,2013-04-04 05:41:00,
2013-04-03 23:52:00,37.0,24.0,-100.00,WSW,243,4.0,8.0,60,0.00,,,-99.99,,2013-04-04 05:52:00,